Time;durP1;ratioP1;P1;durP2;ratioP2;P2;SDS_P1;SDS_P2;PMS_P1;PMS_P2;Temp;Humidity;BMP_temperature;BMP_pressure;BME280_temperature;BME280_humidity;BME280_pressure;Samples;Min_cycle;Max_cycle;Signal;HPM_P1;HPM_P2
2021/05/09 00:01:33;;;;;;;4.20;2.60;;;15.70;99.90;;;;;;5053166;28;20203;-79
2021/05/09 00:03:59;;;;;;;3.00;2.20;;;15.70;99.90;;;;;;5051457;28;20172;-81
2021/05/09 00:06:25;;;;;;;9.75;2.67;;;15.70;99.90;;;;;;5051841;28;20530;-80
2021/05/09 00:08:51;;;;;;;5.28;2.45;;;15.60;99.90;;;;;;5051543;28;20175;-79
2021/05/09 00:11:17;;;;;;;3.55;1.70;;;15.70;99.90;;;;;;5053067;28;20168;-80
2021/05/09 00:13:43;;;;;;;4.70;2.55;;;15.70;99.90;;;;;;5052692;28;20183;-80
2021/05/09 00:16:09;;;;;;;2.47;1.80;;;15.60;99.90;;;;;;5055071;28;20376;-80
2021/05/09 00:18:35;;;;;;;2.53;2.33;;;15.60;99.90;;;;;;5055143;28;20211;-79
2021/05/09 00:21:01;;;;;;;4.63;2.42;;;15.60;99.90;;;;;;5056490;28;20199;-80
2021/05/09 00:23:27;;;;;;;2.53;2.33;;;15.60;99.90;;;;;;5055212;28;20175;-80
2021/05/09 00:25:53;;;;;;;3.97;2.40;;;15.60;99.90;;;;;;5055374;28;20528;-80
2021/05/09 00:28:18;;;;;;;3.72;2.72;;;15.60;99.90;;;;;;5056282;28;20175;-81
2021/05/09 00:30:44;;;;;;;6.97;2.47;;;15.60;99.90;;;;;;5055353;28;20221;-80
2021/05/09 00:33:10;;;;;;;4.15;2.90;;;15.60;99.90;;;;;;5034851;28;20192;-80
2021/05/09 00:35:36;;;;;;;4.63;2.13;;;15.50;99.90;;;;;;5036530;28;20164;-80
2021/05/09 00:38:02;;;;;;;9.35;2.60;;;15.40;99.90;;;;;;5054929;28;20199;-81
2021/05/09 00:40:27;;;;;;;7.30;2.38;;;15.40;99.90;;;;;;5054966;28;20213;-80
2021/05/09 00:42:57;;;;;;;7.00;2.13;;;15.40;99.90;;;;;;5054622;28;20217;-80
2021/05/09 00:45:23;;;;;;;5.68;2.30;;;15.50;99.90;;;;;;5056384;28;20584;-80
2021/05/09 00:47:49;;;;;;;6.10;2.17;;;15.50;99.90;;;;;;5056261;28;20206;-81
2021/05/09 00:50:17;;;;;;;4.25;2.28;;;15.50;99.90;;;;;;5072812;28;20163;-80
2021/05/09 00:52:45;;;;;;;6.88;2.40;;;15.50;99.90;;;;;;5073505;28;20167;-80
2021/05/09 00:55:12;;;;;;;3.55;2.60;;;15.50;99.90;;;;;;5076409;28;20175;-80
2021/05/09 00:57:39;;;;;;;6.63;2.60;;;15.40;99.90;;;;;;5066981;28;20199;-81
2021/05/09 01:00:07;;;;;;;2.88;2.42;;;15.40;99.90;;;;;;5055705;28;20229;-80
2021/05/09 01:02:34;;;;;;;6.78;2.30;;;15.50;99.90;;;;;;5055920;28;20178;-81
2021/05/09 01:05:00;;;;;;;7.45;2.45;;;15.50;99.90;;;;;;5054737;28;20194;-81
2021/05/09 01:07:26;;;;;;;3.83;2.05;;;15.40;99.90;;;;;;5054585;28;20262;-81
2021/05/09 01:09:52;;;;;;;5.55;2.55;;;15.40;99.90;;;;;;5056168;28;20648;-80
2021/05/09 01:12:18;;;;;;;8.40;2.88;;;15.40;99.90;;;;;;5067602;28;20175;-81
2021/05/09 01:14:44;;;;;;;8.90;3.00;;;15.30;99.90;;;;;;5061723;28;20547;-81
2021/05/09 01:17:12;;;;;;;4.68;2.20;;;15.40;99.90;;;;;;5055633;28;20194;-80
2021/05/09 01:19:39;;;;;;;5.30;2.40;;;15.30;99.90;;;;;;5054206;28;20558;-80
2021/05/09 01:22:06;;;;;;;4.20;2.30;;;15.20;99.90;;;;;;5054288;28;20264;-81
2021/05/09 01:24:32;;;;;;;4.50;2.20;;;15.20;99.90;;;;;;5054092;28;20179;-80
2021/05/09 01:26:58;;;;;;;3.28;2.58;;;15.10;99.90;;;;;;5052940;28;20522;-80
2021/05/09 01:29:24;;;;;;;6.55;2.95;;;15.10;99.90;;;;;;5054233;28;20187;-80
2021/05/09 01:31:52;;;;;;;4.88;2.28;;;15.10;99.90;;;;;;5055325;28;20176;-81
2021/05/09 01:34:17;;;;;;;3.63;2.20;;;15.00;99.90;;;;;;5055431;28;20191;-80
2021/05/09 01:36:43;;;;;;;4.72;2.45;;;15.00;99.90;;;;;;5054914;28;20183;-80
2021/05/09 01:39:09;;;;;;;3.15;2.60;;;14.90;99.90;;;;;;5055632;28;20175;-80
2021/05/09 01:41:34;;;;;;;4.57;2.55;;;15.00;99.90;;;;;;5055062;28;20203;-81
2021/05/09 01:44:00;;;;;;;3.63;2.63;;;14.90;99.90;;;;;;5053361;28;20221;-81
2021/05/09 01:46:26;;;;;;;8.10;2.40;;;14.80;99.90;;;;;;5055066;28;20179;-81
2021/05/09 01:48:52;;;;;;;2.67;2.00;;;14.90;99.90;;;;;;5055315;28;20173;-81
2021/05/09 01:51:18;;;;;;;7.00;2.60;;;14.80;99.90;;;;;;5054749;28;20194;-81
2021/05/09 01:53:45;;;;;;;6.03;2.55;;;14.70;99.90;;;;;;5053786;28;20254;-81
2021/05/09 01:56:11;;;;;;;3.15;1.98;;;14.70;99.90;;;;;;5053474;28;20179;-81
2021/05/09 01:58:37;;;;;;;4.80;2.25;;;14.50;99.90;;;;;;5053516;28;20213;-81
2021/05/09 02:01:03;;;;;;;6.60;2.45;;;14.50;99.90;;;;;;5054699;28;20171;-80
2021/05/09 02:03:29;;;;;;;5.40;2.13;;;14.40;99.90;;;;;;5053256;28;20214;-81
2021/05/09 02:05:54;;;;;;;3.03;2.20;;;14.40;99.90;;;;;;5054053;28;20625;-81
2021/05/09 02:08:22;;;;;;;5.50;2.63;;;14.30;99.90;;;;;;5054260;28;20168;-81
2021/05/09 02:10:48;;;;;;;7.75;2.40;;;14.20;99.90;;;;;;5053112;28;20172;-81
2021/05/09 02:13:13;;;;;;;2.67;2.03;;;14.20;99.90;;;;;;5054370;28;20163;-81
2021/05/09 02:15:39;;;;;;;6.78;2.60;;;14.30;99.90;;;;;;5053097;28;20313;-80
2021/05/09 02:18:05;;;;;;;5.03;2.30;;;14.40;99.90;;;;;;5053212;28;20206;-81
2021/05/09 02:20:30;;;;;;;6.28;2.30;;;14.40;99.90;;;;;;5053153;28;20171;-82
2021/05/09 02:22:56;;;;;;;3.08;2.50;;;14.50;99.90;;;;;;5052636;28;20175;-80
2021/05/09 02:25:21;;;;;;;3.97;2.60;;;14.50;99.90;;;;;;5054153;28;20186;-81
2021/05/09 02:27:47;;;;;;;7.15;2.65;;;14.50;99.90;;;;;;5053004;28;20312;-81
2021/05/09 02:30:13;;;;;;;4.25;2.63;;;14.60;99.90;;;;;;5053032;28;20164;-82
2021/05/09 02:32:39;;;;;;;5.05;2.70;;;14.60;99.90;;;;;;5052561;28;20188;-81
2021/05/09 02:35:05;;;;;;;4.00;2.50;;;14.60;99.90;;;;;;5054011;28;20298;-83
2021/05/09 02:37:31;;;;;;;4.70;2.53;;;14.60;99.90;;;;;;5052277;28;20265;-82
2021/05/09 02:39:56;;;;;;;3.50;3.17;;;14.50;99.90;;;;;;5054394;28;20167;-81
2021/05/09 02:42:22;;;;;;;4.53;2.55;;;14.50;99.90;;;;;;5054141;28;20229;-80
2021/05/09 02:44:48;;;;;;;6.05;2.92;;;14.50;99.90;;;;;;5053719;28;20185;-80
2021/05/09 02:47:28;;;;;;;8.68;2.90;;;14.50;99.90;;;;;;5053799;28;20176;-80
2021/05/09 02:49:58;;;;;;;8.18;2.25;;;14.40;99.90;;;;;;5052695;28;20623;-81
2021/05/09 02:52:24;;;;;;;4.88;2.72;;;14.40;99.90;;;;;;5035974;28;20183;-81
2021/05/09 02:54:50;;;;;;;7.40;2.97;;;14.30;99.90;;;;;;5053650;28;20528;-80
2021/05/09 02:57:17;;;;;;;5.47;2.95;;;14.30;99.90;;;;;;5053791;28;20202;-79
2021/05/09 02:59:43;;;;;;;5.30;2.83;;;14.20;99.90;;;;;;5052537;28;20163;-80
2021/05/09 03:02:09;;;;;;;4.63;3.30;;;14.10;99.90;;;;;;5032209;28;20176;-81
2021/05/09 03:04:34;;;;;;;3.10;2.50;;;14.00;99.90;;;;;;5039429;28;20270;-80
2021/05/09 03:07:00;;;;;;;5.00;2.50;;;14.10;99.90;;;;;;5053694;28;20170;-80
2021/05/09 03:09:26;;;;;;;4.95;2.30;;;14.10;99.90;;;;;;5052290;28;20183;-80
2021/05/09 03:11:52;;;;;;;3.33;2.20;;;14.00;99.90;;;;;;5053347;28;20571;-80
2021/05/09 03:14:18;;;;;;;4.70;2.75;;;14.00;99.90;;;;;;5053472;28;20175;-80
2021/05/09 03:16:43;;;;;;;5.97;2.95;;;14.00;99.90;;;;;;5052326;28;20164;-81
2021/05/09 03:19:09;;;;;;;2.60;2.38;;;14.00;99.90;;;;;;5052326;28;20194;-80
2021/05/09 03:21:35;;;;;;;4.93;2.78;;;14.00;99.90;;;;;;5054756;28;20505;-81
2021/05/09 03:24:01;;;;;;;6.03;3.47;;;13.90;99.90;;;;;;5066950;28;20167;-81
2021/05/09 03:26:27;;;;;;;4.63;2.83;;;13.90;99.90;;;;;;5070094;28;20164;-79
2021/05/09 03:28:53;;;;;;;4.72;2.50;;;14.00;99.90;;;;;;5036827;28;20270;-80
2021/05/09 03:31:18;;;;;;;5.90;3.40;;;14.00;99.90;;;;;;5052524;28;20270;-80
2021/05/09 03:33:44;;;;;;;7.22;3.03;;;14.00;99.90;;;;;;5053516;28;20611;-80
2021/05/09 03:36:10;;;;;;;8.70;4.13;;;14.00;99.90;;;;;;5052183;28;20203;-80
2021/05/09 03:38:35;;;;;;;9.70;4.13;;;14.00;99.90;;;;;;5054506;28;20214;-80
2021/05/09 03:41:01;;;;;;;8.55;4.18;;;14.10;99.90;;;;;;5057759;28;20164;-81
2021/05/09 03:43:27;;;;;;;6.28;4.25;;;14.00;99.90;;;;;;5068893;28;20187;-80
2021/05/09 03:45:52;;;;;;;12.88;4.32;;;14.00;99.90;;;;;;5053075;28;20258;-80
2021/05/09 03:48:18;;;;;;;6.55;4.70;;;14.00;99.90;;;;;;5051992;28;20282;-81
2021/05/09 03:50:43;;;;;;;8.63;4.90;;;14.00;99.90;;;;;;5056203;28;20195;-81
2021/05/09 03:53:09;;;;;;;9.60;4.88;;;14.00;99.90;;;;;;5057103;28;20641;-81
2021/05/09 03:55:35;;;;;;;7.53;4.35;;;14.10;99.90;;;;;;5056548;28;20175;-81
2021/05/09 03:58:01;;;;;;;9.98;5.43;;;14.00;99.90;;;;;;5056101;28;20198;-81
2021/05/09 04:00:27;;;;;;;9.32;5.13;;;13.90;99.90;;;;;;5057130;28;20159;-81
2021/05/09 04:02:52;;;;;;;13.30;5.25;;;13.90;99.90;;;;;;5055684;28;20164;-81
2021/05/09 04:05:18;;;;;;;12.98;5.22;;;13.90;99.90;;;;;;5055756;28;20283;-81
2021/05/09 04:07:44;;;;;;;9.50;4.75;;;13.90;99.90;;;;;;5057080;28;20172;-80
2021/05/09 04:10:10;;;;;;;9.48;4.22;;;13.90;99.90;;;;;;5056779;28;20198;-81
2021/05/09 04:12:35;;;;;;;9.63;5.45;;;13.90;99.90;;;;;;5057359;28;20163;-81
2021/05/09 04:15:01;;;;;;;8.10;3.85;;;13.80;99.90;;;;;;5068353;28;20175;-81
2021/05/09 04:17:27;;;;;;;5.70;3.75;;;13.80;99.90;;;;;;5076033;28;20201;-80
2021/05/09 04:19:52;;;;;;;7.32;4.18;;;13.90;99.90;;;;;;5058999;28;20178;-81
2021/05/09 04:22:18;;;;;;;6.93;3.90;;;14.00;99.90;;;;;;5076731;28;20205;-81
2021/05/09 04:24:44;;;;;;;10.10;3.97;;;14.00;99.90;;;;;;5065033;28;20271;-81
2021/05/09 04:27:10;;;;;;;5.90;3.63;;;13.90;99.90;;;;;;5055606;28;20172;-81
2021/05/09 04:29:36;;;;;;;6.80;4.00;;;13.90;99.90;;;;;;5056514;28;20586;-81
2021/05/09 04:32:02;;;;;;;6.03;2.78;;;13.90;99.90;;;;;;5055394;28;20229;-81
2021/05/09 04:34:27;;;;;;;5.43;2.80;;;14.00;99.90;;;;;;5056029;28;20553;-81
2021/05/09 04:36:53;;;;;;;5.88;2.92;;;14.20;99.90;;;;;;5038586;28;20171;-81
2021/05/09 04:39:18;;;;;;;4.13;2.45;;;14.30;99.90;;;;;;5055231;28;20183;-81
2021/05/09 04:41:44;;;;;;;3.38;2.70;;;14.40;99.90;;;;;;5055036;28;20175;-81
2021/05/09 04:44:10;;;;;;;5.18;2.97;;;14.40;99.90;;;;;;5054731;28;20175;-80
2021/05/09 04:46:35;;;;;;;3.30;2.78;;;14.50;99.90;;;;;;5056288;28;20199;-80
2021/05/09 04:49:01;;;;;;;7.05;2.80;;;14.60;99.90;;;;;;5056282;28;20171;-81
2021/05/09 04:51:27;;;;;;;4.63;2.47;;;14.80;99.90;;;;;;5056516;28;20178;-82
2021/05/09 04:53:52;;;;;;;3.65;2.33;;;15.00;99.90;;;;;;5054500;28;20181;-81
2021/05/09 04:56:18;;;;;;;3.17;2.10;;;15.40;99.90;;;;;;5054618;28;20178;-81
2021/05/09 04:58:44;;;;;;;4.95;2.20;;;16.20;99.90;;;;;;5054596;28;20298;-81
2021/05/09 05:01:12;;;;;;;3.90;2.25;;;17.30;99.90;;;;;;5054287;28;20187;-81
2021/05/09 05:03:38;;;;;;;2.60;1.88;;;18.40;99.90;;;;;;5055005;28;20585;-82
2021/05/09 05:06:05;;;;;;;4.40;2.08;;;19.10;99.90;;;;;;5054566;28;20636;-81
2021/05/09 05:08:32;;;;;;;4.72;1.85;;;19.90;99.90;;;;;;5054736;28;20635;-82
2021/05/09 05:10:59;;;;;;;3.92;1.85;;;20.50;99.90;;;;;;5054479;28;20176;-82
2021/05/09 05:13:27;;;;;;;2.38;1.70;;;20.90;99.90;;;;;;5055701;28;20179;-83
2021/05/09 05:15:55;;;;;;;2.50;1.95;;;21.10;99.90;;;;;;5055726;28;20234;-82
2021/05/09 05:18:22;;;;;;;5.10;2.17;;;20.80;99.90;;;;;;5056181;28;20206;-82
2021/05/09 05:20:48;;;;;;;2.65;1.85;;;20.60;99.90;;;;;;5054741;28;20175;-81
2021/05/09 05:23:16;;;;;;;3.72;2.28;;;20.20;99.90;;;;;;5055358;28;20178;-82
2021/05/09 05:25:42;;;;;;;4.53;1.83;;;20.00;99.90;;;;;;5055315;28;20198;-82
2021/05/09 05:28:08;;;;;;;5.60;2.25;;;19.70;99.90;;;;;;5054481;28;20183;-81
2021/05/09 05:30:34;;;;;;;4.30;1.70;;;19.60;99.90;;;;;;5054401;28;20179;-81
2021/05/09 05:33:00;;;;;;;3.38;1.75;;;20.00;99.90;;;;;;5055480;28;20549;-82
2021/05/09 05:35:27;;;;;;;7.32;1.63;;;21.10;99.90;;;;;;5053982;28;20221;-82
2021/05/09 05:37:56;;;;;;;3.75;1.65;;;22.50;99.90;;;;;;5054033;28;20203;-82
2021/05/09 05:40:25;;;;;;;4.22;1.80;;;23.60;99.90;;;;;;5055506;28;20171;-82
2021/05/09 05:42:51;;;;;;;4.07;1.88;;;24.30;99.90;;;;;;5054266;28;20254;-82
2021/05/09 05:45:18;;;;;;;2.30;1.52;;;24.90;99.90;;;;;;5055267;28;20179;-82
2021/05/09 05:47:44;;;;;;;1.67;1.50;;;25.10;99.90;;;;;;5055006;28;20701;-82
2021/05/09 05:50:11;;;;;;;1.98;1.70;;;24.70;99.90;;;;;;5056700;28;20251;-82
2021/05/09 05:52:36;;;;;;;5.10;1.70;;;24.70;99.90;;;;;;5059934;28;20197;-82
2021/05/09 05:55:04;;;;;;;4.10;1.38;;;24.80;99.90;;;;;;5077488;28;20191;-83
2021/05/09 05:57:29;;;;;;;2.55;1.45;;;24.80;99.90;;;;;;5047745;28;20204;-82
2021/05/09 05:59:55;;;;;;;3.20;1.30;;;24.80;99.90;;;;;;5055698;28;20237;-82
2021/05/09 06:02:23;;;;;;;2.38;1.52;;;24.40;99.90;;;;;;5054321;28;20640;-82
2021/05/09 06:04:49;;;;;;;2.05;1.77;;;23.90;99.90;;;;;;5055176;28;20671;-81
2021/05/09 06:07:15;;;;;;;2.45;1.45;;;23.30;99.90;;;;;;5053880;28;20182;-82
2021/05/09 06:09:40;;;;;;;1.92;1.40;;;22.80;99.90;;;;;;5055714;28;20164;-82
2021/05/09 06:12:07;;;;;;;3.53;1.50;;;22.40;99.90;;;;;;5068371;28;20190;-82
2021/05/09 06:14:33;;;;;;;4.22;1.75;;;22.10;99.90;;;;;;5060907;28;20182;-81
2021/05/09 06:16:59;;;;;;;2.45;1.67;;;21.90;99.90;;;;;;5055581;28;20671;-81
2021/05/09 06:19:25;;;;;;;1.70;1.60;;;21.90;99.90;;;;;;5054973;28;20361;-81
2021/05/09 06:21:50;;;;;;;8.55;1.95;;;21.70;99.90;;;;;;5054842;28;20178;-81
2021/05/09 06:24:16;;;;;;;2.55;1.42;;;21.50;99.90;;;;;;5036956;28;20194;-81
2021/05/09 06:26:42;;;;;;;2.58;1.50;;;21.40;99.90;;;;;;5054604;28;20553;-81
2021/05/09 06:29:08;;;;;;;3.63;1.70;;;21.30;99.90;;;;;;5055564;28;20170;-81
2021/05/09 06:31:33;;;;;;;1.52;1.27;;;21.40;99.90;;;;;;5055964;28;20163;-80
2021/05/09 06:33:59;;;;;;;4.80;1.80;;;21.50;99.90;;;;;;5054416;28;20209;-81
2021/05/09 06:36:25;;;;;;;6.90;1.80;;;22.40;99.90;;;;;;5054216;28;20179;-88
2021/05/09 06:38:51;;;;;;;4.80;1.40;;;24.70;99.90;;;;;;5054645;28;20602;-85
2021/05/09 06:41:19;;;;;;;3.95;1.30;;;26.60;99.90;;;;;;5057373;28;20167;-86
2021/05/09 06:43:45;;;;;;;1.83;1.23;;;27.00;99.90;;;;;;5054102;28;20164;-86
2021/05/09 06:46:10;;;;;;;2.05;1.38;;;25.80;99.90;;;;;;5053964;28;20171;-85
2021/05/09 06:48:36;;;;;;;3.25;1.10;;;26.60;99.90;;;;;;5054748;28;20437;-85
2021/05/09 06:51:03;;;;;;;1.70;1.30;;;26.00;99.90;;;;;;5037650;28;20292;-85
2021/05/09 06:53:29;;;;;;;5.30;1.25;;;25.90;99.90;;;;;;5037460;28;20187;-85
2021/05/09 06:55:58;;;;;;;1.48;1.00;;;26.90;99.90;;;;;;5053770;28;20620;-85
2021/05/09 06:58:23;;;;;;;3.35;1.40;;;28.10;99.90;;;;;;5054584;28;20556;-86
2021/05/09 07:00:49;;;;;;;2.35;1.42;;;27.90;99.90;;;;;;5055916;28;20174;-85
2021/05/09 07:03:15;;;;;;;3.05;1.35;;;27.90;99.90;;;;;;5054357;28;20241;-74
2021/05/09 07:05:41;;;;;;;5.03;1.42;;;28.10;99.90;;;;;;5053541;28;20188;-74
2021/05/09 07:08:07;;;;;;;6.28;1.30;;;29.40;99.90;;;;;;5052445;28;20175;-74
2021/05/09 07:10:34;;;;;;;2.30;1.00;;;29.30;99.90;;;;;;5053690;28;20167;-74
2021/05/09 07:13:01;;;;;;;4.00;1.00;;;29.60;99.90;;;;;;5053131;28;20159;-75
2021/05/09 07:15:30;;;;;;;6.03;1.23;;;30.30;99.90;;;;;;5053085;28;20171;-74
2021/05/09 07:18:01;;;;;;;1.33;1.10;;;30.30;98.70;;;;;;5053374;28;20187;-75
2021/05/09 07:20:27;;;;;;;1.80;1.20;;;30.00;99.20;;;;;;5053863;28;20160;-74
2021/05/09 07:22:54;;;;;;;4.32;1.25;;;30.30;98.40;;;;;;5068739;28;20264;-74
2021/05/09 07:25:20;;;;;;;1.73;1.02;;;31.00;98.50;;;;;;5056599;28;20186;-75
2021/05/09 07:27:46;;;;;;;2.83;1.52;;;31.60;96.20;;;;;;5053544;28;20206;-75
2021/05/09 07:30:12;;;;;;;1.90;1.40;;;32.20;96.00;;;;;;5051896;28;20203;-74
2021/05/09 07:32:38;;;;;;;2.22;1.40;;;32.30;94.70;;;;;;5053090;28;20206;-75
2021/05/09 07:35:04;;;;;;;3.55;1.50;;;32.40;94.80;;;;;;5053418;28;20631;-74
2021/05/09 07:37:29;;;;;;;2.13;1.10;;;32.60;94.80;;;;;;5053141;28;20560;-75
2021/05/09 07:39:55;;;;;;;3.38;1.50;;;32.50;94.00;;;;;;5053201;28;20543;-76
2021/05/09 07:42:21;;;;;;;7.95;1.30;;;30.70;95.40;;;;;;5053342;28;20184;-76
2021/05/09 07:44:46;;;;;;;2.95;1.42;;;29.30;97.00;;;;;;5052881;28;20171;-75
2021/05/09 07:47:12;;;;;;;2.60;1.70;;;27.80;98.60;;;;;;5052136;28;20229;-75
2021/05/09 07:49:37;;;;;;;3.50;1.60;;;27.10;99.90;;;;;;5053351;28;20266;-75
2021/05/09 07:52:03;;;;;;;6.30;1.85;;;26.40;99.90;;;;;;5053037;28;20202;-75
2021/05/09 07:54:29;;;;;;;2.17;1.25;;;25.50;99.90;;;;;;5053252;28;20229;-75
2021/05/09 07:56:55;;;;;;;2.60;1.42;;;24.60;99.90;;;;;;5053501;28;20668;-76
2021/05/09 07:59:20;;;;;;;1.45;1.35;;;24.10;99.90;;;;;;5052795;28;20210;-76
2021/05/09 08:01:46;;;;;;;1.45;1.30;;;24.00;99.90;;;;;;5053181;28;20184;-76
2021/05/09 08:04:12;;;;;;;2.17;1.42;;;25.30;99.90;;;;;;5051064;28;20187;-74
2021/05/09 08:06:39;;;;;;;1.42;1.20;;;26.40;99.90;;;;;;5053664;28;20179;-75
2021/05/09 08:09:06;;;;;;;2.03;1.20;;;25.90;99.90;;;;;;5050286;28;20183;-75
2021/05/09 08:11:31;;;;;;;2.97;1.30;;;25.00;99.90;;;;;;5053161;28;20199;-74
2021/05/09 08:13:57;;;;;;;2.08;1.30;;;24.30;99.90;;;;;;5034503;28;20691;-75
2021/05/09 08:16:23;;;;;;;2.17;1.17;;;23.60;99.90;;;;;;5050316;28;20183;-74
2021/05/09 08:18:48;;;;;;;3.95;1.50;;;23.30;99.90;;;;;;5035276;28;20655;-74
2021/05/09 08:21:14;;;;;;;1.48;1.10;;;23.10;99.90;;;;;;5052758;28;20616;-74
2021/05/09 08:23:43;;;;;;;3.10;1.40;;;22.80;99.90;;;;;;5053776;28;20186;-74
2021/05/09 08:26:10;;;;;;;4.93;1.52;;;22.60;99.90;;;;;;5054865;28;20650;-75
2021/05/09 08:28:36;;;;;;;2.38;1.30;;;22.90;99.90;;;;;;5052964;28;20175;-75
2021/05/09 08:31:02;;;;;;;3.17;1.40;;;23.90;99.90;;;;;;5053249;28;20229;-75
2021/05/09 08:33:27;;;;;;;2.95;1.27;;;25.40;99.90;;;;;;5052757;28;20586;-75
2021/05/09 08:35:53;;;;;;;2.45;1.30;;;26.00;99.90;;;;;;5054163;28;20497;-74
2021/05/09 08:38:20;;;;;;;2.97;1.20;;;25.60;99.90;;;;;;5056338;28;20209;-74
2021/05/09 08:40:45;;;;;;;5.88;1.52;;;24.90;99.90;;;;;;5056363;28;20198;-76
2021/05/09 08:43:11;;;;;;;2.88;1.50;;;25.10;99.90;;;;;;5057245;28;20193;-74
2021/05/09 08:45:37;;;;;;;3.00;1.35;;;26.90;99.90;;;;;;5056876;28;20190;-74
2021/05/09 08:48:04;;;;;;;4.88;1.30;;;27.60;99.90;;;;;;5056980;28;20525;-75
2021/05/09 08:50:31;;;;;;;1.40;1.30;;;26.50;99.90;;;;;;5055653;28;20624;-74
2021/05/09 08:52:56;;;;;;;5.18;1.38;;;25.80;99.90;;;;;;5057098;28;20171;-74
2021/05/09 08:55:28;;;;;;;9.38;1.83;;;25.30;99.90;;;;;;5056285;28;20172;-73
2021/05/09 08:57:58;;;;;;;2.28;1.58;;;25.00;99.90;;;;;;5056589;28;20203;-74
2021/05/09 09:00:25;;;;;;;3.38;1.20;;;24.70;99.90;;;;;;5056346;28;20258;-75
2021/05/09 09:02:51;;;;;;;2.00;1.10;;;25.40;99.90;;;;;;5056350;28;20171;-74
2021/05/09 09:05:17;;;;;;;3.10;1.35;;;25.20;99.90;;;;;;5055867;28;20584;-74
2021/05/09 09:07:51;;;;;;;5.18;1.42;;;24.50;99.90;;;;;;5054971;28;20229;-74
2021/05/09 09:10:31;;;;;;;1.50;1.30;;;23.90;99.90;;;;;;5054331;28;20163;-74
2021/05/09 09:13:01;;;;;;;5.57;1.70;;;23.60;99.90;;;;;;5054386;28;20612;-74
2021/05/09 09:15:46;;;;;;;4.72;1.50;;;23.80;99.90;;;;;;5054571;28;20176;-75
2021/05/09 09:18:30;;;;;;;3.10;1.33;;;26.00;99.90;;;;;;5055374;28;20195;-75
2021/05/09 09:20:58;;;;;;;3.85;1.35;;;28.40;99.90;;;;;;5055645;28;20166;-74
2021/05/09 09:23:41;;;;;;;12.60;1.55;;;29.10;99.90;;;;;;5055404;28;20160;-75
2021/05/09 09:26:27;;;;;;;5.25;2.25;;;29.40;99.90;;;;;;5054663;28;20600;-75
2021/05/09 09:28:53;;;;;;;1.92;1.35;;;30.50;98.70;;;;;;5055700;28;20160;-75
2021/05/09 09:31:39;;;;;;;4.72;1.23;;;31.30;97.90;;;;;;5053849;28;20175;-75
2021/05/09 09:34:05;;;;;;;1.48;1.38;;;31.70;97.40;;;;;;5055448;28;20702;-75
2021/05/09 09:36:31;;;;;;;4.85;1.30;;;33.20;95.10;;;;;;5055272;28;20159;-75
2021/05/09 09:38:57;;;;;;;2.88;1.67;;;34.20;94.20;;;;;;5054890;28;20226;-75
2021/05/09 09:41:23;;;;;;;2.85;1.40;;;35.50;93.10;;;;;;5055011;28;20175;-75
2021/05/09 09:44:04;;;;;;;1.40;1.02;;;35.20;91.20;;;;;;5054689;28;20172;-75
2021/05/09 09:46:33;;;;;;;3.30;1.33;;;35.00;91.00;;;;;;5053916;28;20530;-74
2021/05/09 09:49:00;;;;;;;3.72;1.00;;;33.10;91.40;;;;;;5053349;28;20179;-75
2021/05/09 09:51:27;;;;;;;4.13;1.65;;;32.20;93.20;;;;;;5053303;28;20167;-75
2021/05/09 09:53:53;;;;;;;7.90;1.45;;;31.10;94.00;;;;;;5054821;28;20163;-74
2021/05/09 09:56:24;;;;;;;3.55;1.75;;;29.50;95.50;;;;;;5054564;28;20632;-75
2021/05/09 09:58:53;;;;;;;2.85;1.35;;;28.30;97.90;;;;;;5054419;28;20261;-75
2021/05/09 10:01:24;;;;;;;2.30;1.38;;;28.10;97.60;;;;;;5054701;28;20678;-75
2021/05/09 10:04:09;;;;;;;2.47;1.40;;;28.80;96.80;;;;;;5054553;28;20158;-74
2021/05/09 10:06:39;;;;;;;2.47;1.60;;;28.10;98.00;;;;;;5052732;28;20221;-74
2021/05/09 10:09:06;;;;;;;2.78;1.48;;;27.30;99.10;;;;;;5054163;28;20218;-74
2021/05/09 10:11:33;;;;;;;1.50;1.40;;;26.80;99.50;;;;;;5054603;28;20163;-73
2021/05/09 10:14:00;;;;;;;3.13;1.45;;;27.10;99.30;;;;;;5054745;28;20172;-74
2021/05/09 10:16:34;;;;;;;4.75;1.10;;;26.70;99.90;;;;;;5054259;28;20259;-72
2021/05/09 10:19:05;;;;;;;3.72;1.60;;;26.90;99.90;;;;;;5054365;28;20195;-73
2021/05/09 10:21:35;;;;;;;6.20;2.15;;;26.00;99.90;;;;;;5054336;28;20233;-73
2021/05/09 10:24:16;;;;;;;6.18;1.48;;;25.10;99.90;;;;;;5054442;28;20162;-73
2021/05/09 10:26:53;;;;;;;5.50;1.55;;;24.30;99.90;;;;;;5054161;28;20174;-73
2021/05/09 10:29:35;;;;;;;4.70;1.77;;;23.60;99.90;;;;;;5049525;28;20198;-73
2021/05/09 10:32:19;;;;;;;3.90;1.40;;;23.10;99.90;;;;;;5053133;28;20174;-73
2021/05/09 10:34:54;;;;;;;2.45;1.65;;;22.90;99.90;;;;;;5052099;28;20183;-73
2021/05/09 10:37:52;;;;;;;10.35;1.73;;;22.60;99.90;;;;;;5060373;28;20311;-73
2021/05/09 10:40:23;;;;;;;5.70;1.83;;;22.50;99.90;;;;;;5049804;28;20620;-74
2021/05/09 10:43:11;;;;;;;3.63;1.85;;;22.30;99.90;;;;;;5073963;28;20155;-73
2021/05/09 10:45:37;;;;;;;13.13;3.22;;;22.00;99.90;;;;;;5067445;28;20585;-72
2021/05/09 10:48:21;;;;;;;2.83;1.90;;;21.60;99.90;;;;;;5053034;28;20175;-72
2021/05/09 10:50:47;;;;;;;5.45;2.30;;;21.00;99.90;;;;;;5053705;28;20218;-72
2021/05/09 10:53:34;;;;;;;2.42;1.90;;;20.50;99.90;;;;;;5053620;28;20167;-72
2021/05/09 10:56:04;;;;;;;3.15;2.50;;;20.00;99.90;;;;;;5052257;28;20217;-72
2021/05/09 10:58:48;;;;;;;2.00;1.70;;;19.70;99.90;;;;;;5053024;28;20207;-72
2021/05/09 11:01:16;;;;;;;4.30;2.40;;;19.50;99.90;;;;;;5052445;28;20181;-72
2021/05/09 11:03:42;;;;;;;3.67;2.63;;;19.50;99.90;;;;;;5052239;28;20167;-72
2021/05/09 11:06:09;;;;;;;6.10;2.13;;;19.30;99.90;;;;;;5052192;28;20175;-73
2021/05/09 11:08:53;;;;;;;6.00;2.55;;;19.40;99.90;;;;;;5053018;28;20179;-73
2021/05/09 11:11:19;;;;;;;3.85;2.10;;;19.50;99.90;;;;;;5053402;28;20151;-73
2021/05/09 11:14:10;;;;;;;3.38;2.33;;;19.60;99.90;;;;;;5052006;28;20275;-73
2021/05/09 11:16:37;;;;;;;7.43;2.45;;;20.00;99.90;;;;;;5052840;28;20175;-74
2021/05/09 11:19:17;;;;;;;5.65;2.15;;;20.80;99.90;;;;;;5054226;28;20202;-74
2021/05/09 11:21:48;;;;;;;3.95;2.00;;;22.20;99.90;;;;;;5053616;28;20167;-74
2021/05/09 11:24:20;;;;;;;7.15;2.60;;;25.20;99.90;;;;;;5053305;28;20513;-74
2021/05/09 11:26:48;;;;;;;6.63;1.60;;;26.90;99.90;;;;;;5052973;28;20190;-74
2021/05/09 11:29:19;;;;;;;3.35;1.98;;;28.00;99.90;;;;;;5053124;28;20175;-74
2021/05/09 11:31:48;;;;;;;7.18;1.40;;;28.40;99.90;;;;;;5052122;28;20175;-76
2021/05/09 11:34:16;;;;;;;1.75;1.40;;;27.80;99.90;;;;;;5053704;28;20214;-74
2021/05/09 11:36:44;;;;;;;2.42;1.23;;;27.70;99.90;;;;;;5052872;28;20640;-74
2021/05/09 11:39:20;;;;;;;4.88;1.25;;;28.00;99.90;;;;;;5041985;28;20253;-73
2021/05/09 11:41:54;;;;;;;3.03;1.60;;;27.80;99.90;;;;;;5053139;28;20625;-74
2021/05/09 11:44:24;;;;;;;1.95;1.30;;;27.80;99.90;;;;;;5053589;28;20559;-73
2021/05/09 11:46:50;;;;;;;8.07;1.40;;;27.70;99.90;;;;;;5052939;28;20529;-74
2021/05/09 11:49:21;;;;;;;6.32;1.60;;;27.30;99.90;;;;;;5052913;28;20696;-73
2021/05/09 11:51:55;;;;;;;2.67;1.60;;;26.90;99.90;;;;;;5053193;28;20174;-73
2021/05/09 11:54:22;;;;;;;6.07;1.83;;;26.70;99.90;;;;;;5053006;28;20547;-73
2021/05/09 11:56:53;;;;;;;4.43;1.50;;;26.40;99.90;;;;;;5052882;28;20164;-74
2021/05/09 11:59:29;;;;;;;5.10;1.63;;;27.20;99.90;;;;;;5051394;28;20664;-73
2021/05/09 12:01:55;;;;;;;3.35;1.90;;;28.60;99.90;;;;;;5051628;28;20657;-73
2021/05/09 12:04:20;;;;;;;6.85;2.00;;;29.60;99.90;;;;;;5052461;28;20629;-73
2021/05/09 12:06:46;;;;;;;3.10;1.63;;;29.30;99.90;;;;;;5053005;28;20160;-76
2021/05/09 12:09:12;;;;;;;5.95;1.83;;;29.30;99.90;;;;;;5052894;28;20688;-73
2021/05/09 12:11:39;;;;;;;1.80;1.63;;;29.00;99.90;;;;;;5055708;28;20170;-73
2021/05/09 12:14:05;;;;;;;2.25;1.52;;;28.60;99.90;;;;;;5056584;28;20523;-73
2021/05/09 12:16:41;;;;;;;8.38;1.83;;;28.20;99.90;;;;;;5056876;28;20164;-73
2021/05/09 12:19:07;;;;;;;4.90;1.70;;;27.50;99.90;;;;;;5056725;28;20195;-73
2021/05/09 12:21:33;;;;;;;3.33;1.95;;;27.10;99.90;;;;;;5056723;28;20254;-73
2021/05/09 12:24:07;;;;;;;7.18;1.52;;;26.80;99.90;;;;;;5054783;28;20640;-76
2021/05/09 12:26:33;;;;;;;6.45;1.92;;;26.60;99.90;;;;;;5054652;28;20244;-73
2021/05/09 12:29:18;;;;;;;7.25;1.55;;;26.50;99.90;;;;;;5056460;28;20179;-74
2021/05/09 12:31:44;;;;;;;6.20;1.65;;;26.50;99.90;;;;;;5056552;28;20270;-73
2021/05/09 12:34:10;;;;;;;4.43;2.75;;;26.30;99.90;;;;;;5056593;28;20187;-73
2021/05/09 12:36:38;;;;;;;7.65;2.08;;;26.20;99.90;;;;;;5055565;28;20190;-73
2021/05/09 12:39:22;;;;;;;2.22;2.03;;;26.10;99.90;;;;;;5054317;28;20680;-73
2021/05/09 12:41:54;;;;;;;6.50;1.70;;;26.40;99.90;;;;;;5053119;28;20163;-74
2021/05/09 12:44:23;;;;;;;2.75;1.50;;;26.60;99.90;;;;;;5053359;28;20194;-73
2021/05/09 12:46:49;;;;;;;2.80;1.50;;;26.90;99.90;;;;;;5051573;28;20569;-74
2021/05/09 12:49:20;;;;;;;1.75;1.52;;;27.00;99.90;;;;;;5055737;28;20190;-73